createdAt,value
2022-11-19T00:02:17.729Z,3.90
2022-11-19T00:04:44.555Z,3.90
2022-11-19T00:07:11.374Z,3.90
2022-11-19T00:09:38.149Z,3.80
2022-11-19T00:12:05.284Z,3.90
2022-11-19T00:14:32.071Z,3.80
2022-11-19T00:16:58.842Z,3.70
2022-11-19T00:19:25.638Z,3.70
2022-11-19T00:21:52.418Z,3.70
2022-11-19T00:24:19.333Z,3.70
2022-11-19T00:26:46.132Z,3.60
2022-11-19T00:29:16.855Z,3.50
2022-11-19T00:31:44.928Z,3.50
2022-11-19T00:34:11.977Z,3.40
2022-11-19T00:36:38.739Z,3.20
2022-11-19T00:39:05.864Z,3.30
2022-11-19T00:41:32.631Z,3.30
2022-11-19T00:43:59.400Z,3.30
2022-11-19T00:46:29.606Z,3.20
2022-11-19T00:48:58.179Z,3.00
2022-11-19T00:51:27.793Z,3.00
2022-11-19T00:53:54.919Z,2.90
2022-11-19T00:56:23.525Z,2.90
2022-11-19T00:58:51.366Z,3.00
2022-11-19T01:01:20.727Z,2.80
2022-11-19T01:03:48.414Z,2.70
2022-11-19T01:06:19.444Z,2.70
2022-11-19T01:08:48.109Z,2.60
2022-11-19T01:11:27.433Z,2.60
2022-11-19T01:13:54.663Z,2.60
2022-11-19T01:16:28.893Z,2.70
2022-11-19T01:18:56.295Z,2.60
2022-11-19T01:21:25.759Z,2.50
2022-11-19T01:23:52.553Z,2.50
2022-11-19T01:26:19.740Z,2.50
2022-11-19T01:28:47.241Z,2.50
2022-11-19T01:33:46.276Z,2.30
2022-11-19T01:36:31.070Z,2.30
2022-11-19T01:38:59.104Z,2.30
2022-11-19T01:44:03.399Z,2.10
2022-11-19T01:46:35.927Z,2.00
2022-11-19T01:49:07.368Z,2.10
2022-11-19T01:51:46.159Z,2.20
2022-11-19T01:54:21.638Z,2.20
2022-11-19T01:56:48.550Z,2.00
2022-11-19T01:59:18.280Z,2.10
2022-11-19T02:01:45.707Z,2.10
2022-11-19T02:04:15.224Z,2.30
2022-11-19T02:06:42.508Z,2.30
2022-11-19T02:09:09.320Z,2.00
2022-11-19T02:11:49.961Z,1.80
2022-11-19T02:14:54.796Z,1.90
2022-11-19T02:17:25.174Z,1.80
2022-11-19T02:20:13.875Z,1.60
2022-11-19T02:22:49.475Z,1.70
2022-11-19T02:25:52.670Z,1.80
2022-11-19T02:28:40.312Z,1.70
2022-11-19T02:31:13.189Z,1.80
2022-11-19T02:33:53.048Z,1.60
2022-11-19T02:36:30.624Z,1.60
2022-11-19T02:39:25.265Z,1.60
2022-11-19T02:42:17.155Z,1.60
2022-11-19T02:44:57.785Z,1.20
2022-11-19T02:47:36.596Z,1.50
2022-11-19T02:50:09.509Z,1.50
2022-11-19T02:52:36.843Z,1.40
2022-11-19T02:55:03.846Z,1.40
2022-11-19T02:57:30.709Z,1.30
2022-11-19T03:00:02.502Z,1.40
2022-11-19T03:02:33.907Z,1.40
2022-11-19T03:05:01.842Z,1.50
2022-11-19T03:07:28.724Z,1.30
2022-11-19T03:09:58.023Z,1.20
2022-11-19T03:12:49.641Z,1.20
2022-11-19T03:15:24.687Z,1.50
2022-11-19T03:18:19.002Z,1.40
2022-11-19T03:20:55.471Z,1.40
2022-11-19T03:23:27.256Z,1.20
2022-11-19T03:26:00.355Z,1.30
2022-11-19T03:28:32.712Z,1.50
2022-11-19T03:31:00.982Z,1.60
2022-11-19T03:33:43.049Z,1.70
2022-11-19T03:36:18.084Z,1.60
2022-11-19T03:38:50.482Z,1.50
2022-11-19T03:41:19.584Z,1.60
2022-11-19T03:43:53.304Z,1.50
2022-11-19T03:46:22.918Z,1.50
2022-11-19T03:48:53.258Z,1.60
2022-11-19T03:51:33.973Z,1.60
2022-11-19T03:54:00.865Z,1.60
2022-11-19T03:56:29.212Z,1.80
2022-11-19T03:58:58.844Z,1.70
2022-11-19T04:01:25.864Z,1.70
2022-11-19T04:03:52.667Z,1.60
2022-11-19T04:06:19.425Z,1.50
2022-11-19T04:08:46.200Z,1.60
2022-11-19T04:11:15.951Z,1.50
2022-11-19T04:13:42.760Z,1.50
2022-11-19T04:16:09.510Z,1.80
2022-11-19T04:18:36.633Z,1.60
2022-11-19T04:21:03.433Z,1.60
2022-11-19T04:23:30.290Z,1.70
2022-11-19T04:25:57.072Z,1.80
2022-11-19T04:28:27.116Z,1.60
2022-11-19T04:30:53.887Z,1.70
2022-11-19T04:33:20.673Z,1.80
2022-11-19T04:35:47.464Z,1.90
2022-11-19T04:38:14.320Z,1.70
2022-11-19T04:40:42.358Z,1.60
2022-11-19T04:43:09.152Z,1.50
2022-11-19T04:45:36.032Z,1.50
2022-11-19T04:48:02.868Z,1.40
2022-11-19T04:50:29.863Z,1.50
2022-11-19T04:52:56.611Z,1.40
2022-11-19T04:55:23.350Z,1.40
2022-11-19T04:57:50.124Z,1.30
2022-11-19T05:00:17.127Z,1.30
2022-11-19T05:02:44.321Z,1.30
2022-11-19T05:05:11.066Z,1.30
2022-11-19T05:07:38.012Z,1.50
2022-11-19T05:10:05.332Z,1.50
2022-11-19T05:12:32.141Z,1.30
2022-11-19T05:14:58.969Z,1.40
2022-11-19T05:17:25.728Z,1.50
2022-11-19T05:19:52.495Z,1.40
2022-11-19T05:22:19.244Z,1.30
2022-11-19T05:24:46.079Z,1.10
2022-11-19T05:27:12.880Z,1.10
2022-11-19T05:29:39.682Z,1.30
2022-11-19T05:32:06.443Z,1.40
2022-11-19T05:34:33.211Z,1.50
2022-11-19T05:37:00.116Z,1.50
2022-11-19T05:39:27.175Z,1.40
2022-11-19T05:41:54.262Z,1.50
2022-11-19T05:44:21.145Z,1.40
2022-11-19T05:46:47.974Z,1.40
2022-11-19T05:49:14.783Z,1.30
2022-11-19T05:51:41.572Z,1.30
2022-11-19T05:54:08.450Z,1.30
2022-11-19T05:56:35.235Z,1.40
2022-11-19T05:59:02.012Z,1.60
2022-11-19T06:01:30.056Z,1.50
2022-11-19T06:03:57.342Z,1.50
2022-11-19T06:06:24.180Z,1.60
2022-11-19T06:08:51.295Z,1.70
2022-11-19T06:11:18.552Z,1.60
2022-11-19T06:13:45.319Z,1.40
2022-11-19T06:16:12.055Z,1.30
2022-11-19T06:18:38.848Z,1.40
2022-11-19T06:21:10.857Z,1.30
2022-11-19T06:23:38.890Z,1.40
2022-11-19T06:26:08.201Z,1.30
2022-11-19T06:28:35.319Z,1.10
2022-11-19T06:31:02.148Z,1.10
2022-11-19T06:33:29.140Z,1.40
2022-11-19T06:35:55.873Z,1.40
2022-11-19T06:38:22.652Z,1.40
2022-11-19T06:40:49.435Z,1.30
2022-11-19T06:43:16.190Z,1.40
2022-11-19T06:45:42.954Z,1.40
2022-11-19T06:48:09.779Z,1.40
2022-11-19T06:50:36.599Z,1.40
2022-11-19T06:53:03.518Z,1.50
2022-11-19T06:55:30.296Z,1.60
2022-11-19T06:58:01.225Z,1.50
2022-11-19T07:00:28.092Z,1.50
2022-11-19T07:02:55.359Z,1.50
2022-11-19T07:05:22.228Z,1.50
2022-11-19T07:07:49.013Z,1.40
2022-11-19T07:10:16.164Z,1.60
2022-11-19T07:12:43.041Z,1.50
2022-11-19T07:15:10.478Z,1.40
2022-11-19T07:17:37.453Z,1.70
2022-11-19T07:20:05.530Z,1.80
2022-11-19T07:22:32.349Z,1.70
2022-11-19T07:24:59.123Z,1.80
2022-11-19T07:27:25.985Z,1.80
2022-11-19T07:29:52.801Z,2.00
2022-11-19T07:32:19.599Z,2.10
2022-11-19T07:34:46.433Z,2.20
2022-11-19T07:37:13.232Z,2.20
2022-11-19T07:39:40.233Z,2.20
2022-11-19T07:42:10.868Z,2.10
2022-11-19T07:44:40.615Z,2.10
2022-11-19T07:47:08.136Z,2.10
2022-11-19T07:49:34.934Z,2.10
2022-11-19T07:52:01.718Z,2.20
2022-11-19T07:54:28.467Z,2.20
2022-11-19T07:56:55.294Z,2.10
2022-11-19T07:59:22.296Z,2.20
2022-11-19T08:01:49.368Z,2.20
2022-11-19T08:04:16.328Z,2.30
2022-11-19T08:06:43.085Z,2.30
2022-11-19T08:09:09.860Z,2.20
2022-11-19T08:11:36.721Z,2.20
2022-11-19T08:14:03.518Z,2.40
2022-11-19T08:16:32.908Z,2.20
2022-11-19T08:19:01.019Z,2.40
2022-11-19T08:21:28.009Z,2.50
2022-11-19T08:23:55.588Z,2.50
2022-11-19T08:26:22.416Z,2.70
2022-11-19T08:28:49.256Z,2.60
2022-11-19T08:31:16.081Z,2.70
2022-11-19T08:33:42.926Z,2.60
2022-11-19T08:36:09.773Z,2.60
2022-11-19T08:38:38.855Z,2.50
2022-11-19T08:41:06.232Z,2.60
2022-11-19T08:43:35.245Z,2.80
2022-11-19T08:46:02.038Z,2.90
2022-11-19T08:48:28.838Z,2.90
2022-11-19T08:50:55.668Z,3.00
2022-11-19T08:53:22.520Z,3.00
2022-11-19T08:55:52.559Z,3.00
2022-11-19T08:58:19.460Z,3.00
2022-11-19T09:00:46.242Z,3.10
2022-11-19T09:03:13.167Z,3.00
2022-11-19T09:05:39.995Z,3.00
2022-11-19T09:08:06.855Z,2.90
2022-11-19T09:10:34.346Z,2.80
2022-11-19T09:13:05.612Z,3.00
2022-11-19T09:15:32.746Z,3.00
2022-11-19T09:17:59.557Z,3.10
2022-11-19T09:20:26.426Z,3.00
2022-11-19T09:22:53.190Z,3.10
2022-11-19T09:25:20.015Z,2.90
2022-11-19T09:27:48.230Z,3.00
2022-11-19T09:30:15.165Z,2.90
2022-11-19T09:32:42.000Z,3.10
2022-11-19T09:35:08.870Z,3.00
2022-11-19T09:37:35.737Z,3.10
2022-11-19T09:40:02.605Z,3.10
2022-11-19T09:42:54.062Z,3.20
2022-11-19T09:45:48.994Z,3.20
2022-11-19T09:48:30.549Z,3.30
2022-11-19T09:51:07.750Z,3.30
2022-11-19T09:53:56.725Z,3.20
2022-11-19T09:56:30.902Z,3.20
2022-11-19T09:58:58.835Z,3.10
2022-11-19T10:01:27.881Z,3.10
2022-11-19T10:03:55.122Z,3.10
2022-11-19T10:06:34.657Z,3.10
2022-11-19T10:09:07.254Z,3.20
2022-11-19T10:11:56.284Z,3.00
2022-11-19T10:14:25.898Z,3.10
2022-11-19T10:17:14.275Z,3.00
2022-11-19T10:19:56.580Z,3.20
2022-11-19T10:22:33.211Z,3.20
2022-11-19T10:25:15.530Z,3.00
2022-11-19T10:27:54.152Z,3.00
2022-11-19T10:30:28.992Z,3.00
2022-11-19T10:33:01.612Z,3.10
2022-11-19T10:35:37.760Z,3.10
2022-11-19T10:38:26.203Z,3.10
2022-11-19T10:41:09.434Z,3.10
2022-11-19T10:43:52.908Z,3.10
2022-11-19T10:46:24.316Z,3.00
2022-11-19T10:48:54.706Z,3.40
2022-11-19T10:51:27.702Z,3.40
2022-11-19T10:53:55.900Z,3.40
2022-11-19T10:56:31.456Z,3.30
2022-11-19T10:59:04.794Z,3.40
2022-11-19T11:01:33.697Z,3.50
2022-11-19T11:04:18.343Z,3.60
2022-11-19T11:06:57.869Z,3.60
2022-11-19T11:09:40.918Z,3.60
2022-11-19T11:12:25.543Z,3.50
2022-11-19T11:14:52.978Z,3.40
2022-11-19T11:17:23.702Z,3.50
2022-11-19T11:20:01.854Z,3.40
2022-11-19T11:22:29.073Z,3.40
2022-11-19T11:24:57.086Z,3.50
2022-11-19T11:27:36.445Z,3.40
2022-11-19T11:30:15.694Z,3.50
2022-11-19T11:32:43.297Z,3.50
2022-11-19T11:35:29.958Z,3.50
2022-11-19T11:37:56.928Z,3.50
2022-11-19T11:40:31.922Z,3.50
2022-11-19T11:42:59.122Z,3.40
2022-11-19T11:45:34.793Z,3.60
2022-11-19T11:48:17.632Z,3.40
2022-11-19T11:50:47.889Z,3.40
2022-11-19T11:53:16.923Z,3.50
2022-11-19T11:55:43.762Z,3.50
2022-11-19T11:58:31.522Z,3.50
2022-11-19T12:01:16.603Z,3.50
2022-11-19T12:03:58.050Z,3.70
2022-11-19T12:06:32.837Z,3.50
2022-11-19T12:09:20.971Z,3.60
2022-11-19T12:12:09.597Z,3.50
2022-11-19T12:14:36.408Z,3.50
2022-11-19T12:17:16.540Z,3.40
2022-11-19T12:20:16.645Z,3.30
2022-11-19T12:23:05.218Z,3.40
2022-11-19T12:25:54.899Z,3.40
2022-11-19T12:28:51.512Z,3.40
2022-11-19T12:31:43.329Z,3.20
2022-11-19T12:34:25.535Z,3.40
2022-11-19T12:37:28.030Z,3.30
2022-11-19T12:40:39.433Z,3.40
2022-11-19T12:43:27.644Z,3.40
2022-11-19T12:46:02.688Z,3.40
2022-11-19T12:49:07.926Z,3.50
2022-11-19T12:52:05.571Z,3.30
2022-11-19T12:54:59.201Z,3.40
2022-11-19T12:57:35.869Z,3.20
2022-11-19T13:00:11.968Z,3.10
2022-11-19T13:03:00.565Z,3.20
2022-11-19T13:06:05.075Z,3.40
2022-11-19T13:08:48.769Z,3.40
2022-11-19T13:11:17.812Z,3.30
2022-11-19T13:13:49.228Z,3.40
2022-11-19T13:16:20.113Z,3.40
2022-11-19T13:18:51.678Z,3.50
2022-11-19T13:21:57.432Z,3.50
2022-11-19T13:24:44.284Z,3.40
2022-11-19T13:27:20.241Z,3.50
2022-11-19T13:30:05.094Z,3.50
2022-11-19T13:32:37.078Z,3.60
2022-11-19T13:35:20.414Z,3.50
2022-11-19T13:38:00.885Z,3.70
2022-11-19T13:40:39.500Z,3.70
2022-11-19T13:43:30.971Z,3.70
2022-11-19T13:46:06.975Z,3.50
2022-11-19T13:48:47.263Z,3.40
2022-11-19T13:51:43.028Z,3.40
2022-11-19T13:54:20.221Z,3.30
2022-11-19T13:56:51.596Z,3.20
2022-11-19T13:59:39.098Z,3.10
2022-11-19T14:02:37.818Z,3.10
2022-11-19T14:05:36.940Z,3.20
2022-11-19T14:08:15.955Z,3.10
2022-11-19T14:10:55.593Z,3.10
2022-11-19T14:13:29.862Z,3.10
2022-11-19T14:16:25.261Z,3.00
2022-11-19T14:18:58.854Z,3.10
2022-11-19T14:21:27.752Z,3.00
2022-11-19T14:23:54.788Z,3.10
2022-11-19T14:26:40.047Z,3.00
2022-11-19T14:29:19.488Z,3.00
2022-11-19T14:32:09.904Z,3.10
2022-11-19T14:35:01.661Z,3.10
2022-11-19T14:37:34.568Z,3.00
2022-11-19T14:40:29.075Z,3.00
2022-11-19T14:43:02.129Z,3.10
2022-11-19T14:45:29.281Z,3.00
2022-11-19T14:48:04.393Z,2.80
2022-11-19T14:50:31.711Z,2.90
2022-11-19T14:53:00.860Z,2.80
2022-11-19T14:55:33.967Z,2.90
2022-11-19T14:58:21.800Z,2.80
2022-11-19T15:00:48.979Z,2.80
2022-11-19T15:03:22.623Z,2.80
2022-11-19T15:05:50.279Z,2.80
2022-11-19T15:08:17.622Z,2.90
2022-11-19T15:11:07.616Z,2.90
2022-11-19T15:13:39.077Z,2.80
2022-11-19T15:16:21.723Z,2.70
2022-11-19T15:19:11.367Z,2.70
2022-11-19T15:21:52.921Z,2.70
2022-11-19T15:24:49.186Z,2.60
2022-11-19T15:27:44.281Z,2.70
2022-11-19T15:30:21.916Z,2.70
2022-11-19T15:32:48.924Z,2.70
2022-11-19T15:35:33.548Z,2.70
2022-11-19T15:38:20.263Z,2.70
2022-11-19T15:40:51.180Z,2.70
2022-11-19T15:43:36.289Z,2.80
2022-11-19T15:46:19.675Z,2.70
2022-11-19T15:49:11.585Z,2.80
2022-11-19T15:52:06.223Z,2.70
2022-11-19T15:54:35.020Z,2.70
2022-11-19T15:57:14.569Z,2.60
2022-11-19T15:59:42.639Z,2.60
2022-11-19T16:02:20.836Z,2.70
2022-11-19T16:04:50.209Z,2.60
2022-11-19T16:07:23.013Z,2.60
2022-11-19T16:09:50.214Z,2.80
2022-11-19T16:12:28.353Z,2.70
2022-11-19T16:14:55.750Z,2.60
2022-11-19T16:17:25.306Z,2.70
2022-11-19T16:20:02.280Z,2.60
2022-11-19T16:22:30.783Z,2.70
2022-11-19T16:24:57.838Z,2.60
2022-11-19T16:27:25.606Z,2.60
2022-11-19T16:29:52.721Z,2.70
2022-11-19T16:32:22.518Z,2.70
2022-11-19T16:34:49.632Z,2.50
2022-11-19T16:37:21.860Z,2.50
2022-11-19T16:39:52.332Z,2.50
2022-11-19T16:42:23.178Z,2.50
2022-11-19T16:44:56.706Z,2.50
2022-11-19T16:47:39.277Z,2.50
2022-11-19T16:50:25.184Z,2.50
2022-11-19T16:52:52.426Z,2.50
2022-11-19T16:55:19.711Z,2.40
2022-11-19T16:57:52.453Z,2.40
2022-11-19T17:00:22.270Z,2.40
2022-11-19T17:02:50.577Z,2.40
2022-11-19T17:05:20.603Z,2.50
2022-11-19T17:07:53.370Z,2.50
2022-11-19T17:10:28.708Z,2.30
2022-11-19T17:12:59.528Z,2.30
2022-11-19T17:18:18.639Z,2.40
2022-11-19T17:20:46.611Z,2.20
2022-11-19T17:23:25.361Z,2.20
2022-11-19T17:26:02.624Z,2.20
2022-11-19T17:28:44.863Z,2.30
2022-11-19T17:31:21.742Z,2.30
2022-11-19T17:33:54.986Z,2.30
2022-11-19T17:36:22.569Z,2.20
2022-11-19T17:38:50.208Z,2.20
2022-11-19T17:41:22.546Z,2.20
2022-11-19T17:43:49.360Z,2.20
2022-11-19T17:46:16.923Z,2.10
2022-11-19T17:48:46.119Z,2.10
2022-11-19T17:51:15.184Z,2.10
2022-11-19T17:53:41.991Z,2.00
2022-11-19T17:56:24.062Z,2.00
2022-11-19T17:58:51.322Z,2.10
2022-11-19T18:01:18.768Z,1.90
2022-11-19T18:03:45.766Z,1.80
2022-11-19T18:06:15.715Z,1.80
2022-11-19T18:08:43.688Z,1.70
2022-11-19T18:11:19.205Z,1.70
2022-11-19T18:13:48.189Z,1.70
2022-11-19T18:16:17.880Z,1.80
2022-11-19T18:18:44.958Z,1.70
2022-11-19T18:21:14.774Z,1.80
2022-11-19T18:23:43.159Z,1.80
2022-11-19T18:26:11.846Z,1.80
2022-11-19T18:28:41.629Z,1.90
2022-11-19T18:31:25.609Z,1.90
2022-11-19T18:33:53.580Z,1.90
2022-11-19T18:36:24.009Z,1.90
2022-11-19T18:38:51.264Z,1.80
2022-11-19T18:41:18.659Z,1.80
2022-11-19T18:43:46.797Z,1.80
2022-11-19T18:46:13.978Z,1.60
2022-11-19T18:48:41.202Z,1.70
2022-11-19T18:51:12.705Z,1.80
2022-11-19T18:53:40.243Z,1.80
2022-11-19T18:56:08.776Z,1.60
2022-11-19T18:58:35.636Z,1.80
2022-11-19T19:01:06.164Z,1.80
2022-11-19T19:03:34.847Z,1.80
2022-11-19T19:06:03.082Z,1.70
2022-11-19T19:08:30.791Z,1.70
2022-11-19T19:10:58.529Z,1.70
2022-11-19T19:13:25.437Z,1.80
2022-11-19T19:15:52.758Z,1.70
2022-11-19T19:18:19.921Z,1.50
2022-11-19T19:20:46.840Z,1.60
2022-11-19T19:23:13.982Z,1.50
2022-11-19T19:25:40.857Z,1.60
2022-11-19T19:28:09.112Z,1.60
2022-11-19T19:30:36.650Z,1.50
2022-11-19T19:33:04.456Z,1.30
2022-11-19T19:35:31.778Z,1.30
2022-11-19T19:37:58.972Z,1.50
2022-11-19T19:40:26.630Z,1.30
2022-11-19T19:42:54.191Z,1.30
2022-11-19T19:45:22.058Z,1.30
2022-11-19T19:47:49.340Z,1.30
2022-11-19T19:50:16.711Z,1.20
2022-11-19T19:52:44.196Z,1.20
2022-11-19T19:55:11.577Z,1.40
2022-11-19T19:57:38.658Z,1.20
2022-11-19T20:00:06.631Z,1.20
2022-11-19T20:02:39.789Z,1.20
2022-11-19T20:05:07.604Z,1.20
2022-11-19T20:07:35.044Z,1.20
2022-11-19T20:10:02.345Z,1.10
2022-11-19T20:12:29.470Z,1.20
2022-11-19T20:14:56.965Z,1.30
2022-11-19T20:17:24.207Z,1.10
2022-11-19T20:19:51.574Z,1.30
2022-11-19T20:22:19.021Z,1.30
2022-11-19T20:24:46.189Z,1.20
2022-11-19T20:27:13.403Z,1.10
2022-11-19T20:29:40.692Z,1.10
2022-11-19T20:32:07.964Z,1.20
2022-11-19T20:34:35.099Z,1.20
2022-11-19T20:37:02.144Z,1.10
2022-11-19T20:39:28.949Z,1.10
2022-11-19T20:41:56.083Z,1.30
2022-11-19T20:44:23.307Z,1.30
2022-11-19T20:46:57.435Z,1.20
2022-11-19T20:49:27.069Z,1.10
2022-11-19T20:51:54.666Z,1.00
2022-11-19T20:54:22.182Z,0.90
2022-11-19T20:56:50.011Z,0.90
2022-11-19T20:59:18.131Z,0.90
2022-11-19T21:01:45.670Z,0.90
2022-11-19T21:04:12.639Z,1.00
2022-11-19T21:06:39.720Z,1.00
2022-11-19T21:09:07.537Z,0.90
2022-11-19T21:11:36.262Z,0.90
2022-11-19T21:14:03.491Z,0.90
2022-11-19T21:16:30.856Z,1.10
2022-11-19T21:18:57.668Z,1.00
2022-11-19T21:21:25.348Z,1.10
2022-11-19T21:23:53.715Z,0.90
2022-11-19T21:26:25.852Z,0.90
2022-11-19T21:28:56.805Z,1.00
2022-11-19T21:31:25.889Z,0.80
2022-11-19T21:33:52.977Z,0.70
2022-11-19T21:36:20.811Z,0.90
2022-11-19T21:38:47.987Z,0.90
2022-11-19T21:41:15.185Z,0.90
2022-11-19T21:43:42.956Z,0.90
2022-11-19T21:46:10.040Z,0.80
2022-11-19T21:48:37.796Z,0.90
2022-11-19T21:51:08.713Z,1.10
2022-11-19T21:53:36.375Z,1.00
2022-11-19T21:56:03.904Z,0.80
2022-11-19T21:58:30.659Z,1.00
2022-11-19T22:00:58.783Z,0.90
2022-11-19T22:03:26.607Z,0.90
2022-11-19T22:06:11.226Z,1.10
2022-11-19T22:08:40.485Z,1.00
2022-11-19T22:11:09.097Z,1.00
2022-11-19T22:13:35.917Z,1.00
2022-11-19T22:16:02.727Z,1.10
2022-11-19T22:18:29.871Z,1.00
2022-11-19T22:21:01.122Z,0.90
2022-11-19T22:23:27.893Z,0.70
2022-11-19T22:25:54.648Z,1.00
2022-11-19T22:28:21.504Z,1.00
2022-11-19T22:30:55.106Z,1.00
2022-11-19T22:33:21.879Z,1.00
2022-11-19T22:35:48.796Z,1.10
2022-11-19T22:38:15.789Z,0.90
2022-11-19T22:40:42.598Z,0.70
2022-11-19T22:43:09.386Z,0.90
2022-11-19T22:45:36.182Z,0.90
2022-11-19T22:48:02.938Z,1.00
2022-11-19T22:50:29.701Z,1.00
2022-11-19T22:52:56.499Z,0.90
2022-11-19T22:55:23.298Z,0.90
2022-11-19T22:58:08.905Z,1.00
2022-11-19T23:00:46.022Z,1.00
2022-11-19T23:03:13.267Z,1.00
2022-11-19T23:05:40.609Z,1.00
2022-11-19T23:08:09.851Z,1.00
2022-11-19T23:10:37.068Z,0.90
2022-11-19T23:13:04.272Z,0.90
2022-11-19T23:15:31.172Z,0.90
2022-11-19T23:17:57.916Z,1.10
2022-11-19T23:20:24.762Z,1.10
2022-11-19T23:22:51.484Z,1.00
2022-11-19T23:25:18.262Z,0.90
2022-11-19T23:27:45.068Z,0.90
2022-11-19T23:30:11.981Z,0.90
2022-11-19T23:32:38.778Z,0.80
2022-11-19T23:35:05.647Z,0.90
2022-11-19T23:37:32.479Z,1.00
2022-11-19T23:39:59.218Z,0.90
2022-11-19T23:42:26.056Z,0.80
2022-11-19T23:44:52.801Z,0.80
2022-11-19T23:47:19.633Z,1.00
2022-11-19T23:49:46.419Z,1.00
2022-11-19T23:52:13.138Z,0.90
2022-11-19T23:54:39.939Z,0.90
2022-11-19T23:57:06.730Z,0.90
2022-11-19T23:59:35.435Z,1.00
